This is the latest recevied weather packets stored in our database for station/object DO1BDB-12. If no packets are shown the sender has not sent any weather packets the latest 10 day(s).
| Time | Temp. | Humidity | Pressure | Rain* | Wind** | Luminosity | Snow |
|---|---|---|---|---|---|---|---|
| 1778251153 | 14.44° C | 51% | 102.1 hPa | - | - | - | - |
| 1778251087 | 13.89° C | 51% | 102.1 hPa | - | - | - | - |
| 1778251021 | 14.44° C | 50% | 102.1 hPa | - | - | - | - |
| 1778250956 | 14.44° C | 51% | 102.1 hPa | - | - | - | - |
| 1778250890 | 13.89° C | 52% | 102.1 hPa | - | - | - | - |
| 1778250824 | 14.44° C | 50% | 102.1 hPa | - | - | - | - |
| 1778250758 | 15.56° C | 49% | 102.1 hPa | - | - | - | - |
| 1778250692 | 15.56° C | 48% | 102.1 hPa | - | - | - | - |
| 1778250626 | 15.56° C | 48% | 102.1 hPa | - | - | - | - |
| 1778250561 | 15.56° C | 49% | 102.1 hPa | - | - | - | - |
| 1778250495 | 15° C | 50% | 102.1 hPa | - | - | - | - |
| 1778250429 | 14.44° C | 51% | 102.1 hPa | - | - | - | - |
| 1778250363 | 13.89° C | 51% | 102.1 hPa | - | - | - | - |
| 1778250297 | 13.89° C | 51% | 102.1 hPa | - | - | - | - |
| 1778250232 | 14.44° C | 49% | 102.1 hPa | - | - | - | - |
| 1778250165 | 14.44° C | 51% | 102.1 hPa | - | - | - | - |
| 1778250099 | 15° C | 47% | 102.1 hPa | - | - | - | - |
| 1778250034 | 16.11° C | 47% | 102.1 hPa | - | - | - | - |
| 1778249968 | 15.56° C | 48% | 102.1 hPa | - | - | - | - |
| 1778249902 | 16.11° C | 47% | 102.1 hPa | - | - | - | - |
| 1778249836 | 16.11° C | 48% | 102.1 hPa | - | - | - | - |
| 1778249770 | 15.56° C | 48% | 102.1 hPa | - | - | - | - |
| 1778249704 | 15° C | 49% | 102.1 hPa | - | - | - | - |
| 1778249639 | 14.44° C | 50% | 102.1 hPa | - | - | - | - |
| 1778249573 | 15° C | 50% | 102.1 hPa | - | - | - | - |
* Rain since midnight (hover to see other rain measurements)
** Current wind speed in m/s (hover to see current wind gust speed)